Paonia, CO

10:50 PM MDT on September 16, 2014 (GMT -0600)
Lamborn Mesa | Change Station
CLOSE
Current Station
Personal Weather Station
Location: Paonia, CO
Elevation: 5900 ft
Nearby Weather Stations

Elev 5900 ft 38.86 °N, 107.59 °W | Updated 9 minutes ago

Clear
Clear
61.3 °F
Feels Like 61.3 °F
N
0.0
Wind Variable Wind from North
Gusts 2.7 mph

Today
High -- | Low -- °F
--% Chance of Precip.
Yesterday
High -- | Low -- °F
Precip. -- in
6:52 AM 7:16 PM
Last Quarter, 39% visible
Pressure 30.13 in
Visibility 7.0 miles
Clouds Clear
Dew Point 39 °F
Humidity 44%
Rainfall -999.00 in
Snow Depth 0 in , 7 in , 0 in
UV 0 out of 12
Pollen 5.50 out of 12
Air Quality Not available.
Flu Activity Not available.
METAR KAJZ 170435Z AUTO 05005KT 7SM CLR 21/05 A3013 RMK AO2 T02050052

More Conditions Fewer Conditions

Pressure 30.13 in
Visibility 7.0 miles
Clouds Clear
Dew Point 39 °F
Humidity 44%
Rainfall -999.00 in
Snow Depth 0 in , 7 in , 0 in
UV 0 out of 12
Pollen 5.50 out of 12
Air Quality Not available.
Flu Activity Not available.
METAR KAJZ 170435Z AUTO 05005KT 7SM CLR 21/05 A3013 RMK AO2 T02050052

More Conditions Fewer Conditions

10-Day Weather Forecast

Almanac

Astronomy

Sep. 16, 2014 Rise Set
Actual Time 6:52 AM MDT 7:16 PM MDT
Civil Twilight 6:25 AM MDT 7:43 PM MDT
Nautical Twilight 5:54 AM MDT 8:14 PM MDT
Astronomical Twilight 5:22 AM MDT 8:46 PM MDT
Moon 12:07 AM MDT (9/16) 2:40 PM MDT (9/16)
Length of Visible Light 13h 17m
Length of Day
12h 24m
Tomorrow will be 2m 30s shorter.
Last Quarter, 39% of the Moon is Illuminated
Sep 17
Last Quarter
Sep 24
New
Oct 1
First Quarter
Oct 8
Full
Oct 15
Last Quarter

Yesterday's Extremes

State Highs State Lows

Community

WunderPhotos

Upload Photos

1,753,966 photos uploaded!

Nearby

Snow Depth

Station Depth Elevation
Buffalo Park 0 in 9240 ft
Lone Cone 7 in 9600 ft
Middle Fork Camp 0 in 9000 ft
Lizard Head Pass 0 in 10200 ft
Brumley 0 in 10600 ft

Earthquake Activity

City Distance Mag. Time & Date
No recent earthquake activity has been reported nearby.
Minimum magnitude displayed is 2.5.

Coastal Water Temperatures

Place Temperature
No Stations Reporting

Nearby Weather Stations